Time;durP1;ratioP1;P1;durP2;ratioP2;P2;SDS_P1;SDS_P2;PMS_P1;PMS_P2;Temp;Humidity;BMP_temperature;BMP_pressure;BME280_temperature;BME280_humidity;BME280_pressure;Samples;Min_cycle;Max_cycle;Signal;HPM_P1;HPM_P2
2022/04/03 00:01:22;;;;;;;1.70;1.70;;;;;;;1.32;55.30;99771.52;104060;1276;137689;-74
2022/04/03 00:03:50;;;;;;;1.70;1.70;;;;;;;1.37;55.05;99768.53;104138;1277;108391;-77
2022/04/03 00:06:19;;;;;;;1.60;1.60;;;;;;;1.38;55.08;99769.94;104056;1276;138728;-76
2022/04/03 00:08:47;;;;;;;1.60;1.60;;;;;;;1.30;54.73;99773.42;104325;1276;95843;-76
2022/04/03 00:11:15;;;;;;;1.60;1.60;;;;;;;1.27;55.35;99771.33;104152;1276;107412;-77
2022/04/03 00:13:44;;;;;;;1.50;1.50;;;;;;;1.30;55.11;99773.26;104085;1276;138335;-76
2022/04/03 00:16:13;;;;;;;1.60;1.60;;;;;;;1.33;54.84;99773.09;104173;1277;107823;-76
2022/04/03 00:18:41;;;;;;;1.60;1.60;;;;;;;1.30;55.18;99776.06;104111;1276;137806;-76
2022/04/03 00:21:13;;;;;;;1.50;1.50;;;;;;;1.26;55.10;99770.98;104091;1277;95863;-76
2022/04/03 00:23:41;;;;;;;1.70;1.70;;;;;;;1.25;55.11;99772.73;104420;1276;108490;-76
2022/04/03 00:26:09;;;;;;;1.60;1.60;;;;;;;1.21;54.94;99773.23;104050;1276;137618;-73
2022/04/03 00:28:37;;;;;;;1.80;1.80;;;;;;;1.17;55.31;99771.31;104217;1276;107715;-76
2022/04/03 00:31:05;;;;;;;1.90;1.90;;;;;;;1.10;55.18;99771.30;104155;1276;137768;-76
2022/04/03 00:33:34;;;;;;;1.90;1.90;;;;;;;1.05;55.65;99770.77;104252;1276;95324;-78
2022/04/03 00:36:02;;;;;;;1.70;1.70;;;;;;;1.10;55.37;99772.00;104020;1276;138983;-76
2022/04/03 00:38:30;;;;;;;1.70;1.70;;;;;;;1.20;55.60;99771.14;104154;1276;98360;-80
2022/04/03 00:41:00;;;;;;;1.70;1.70;;;;;;;1.25;55.11;99772.38;104242;1276;107763;-76
2022/04/03 00:43:28;;;;;;;1.80;1.80;;;;;;;1.27;54.89;99770.10;104157;1276;137797;-76
2022/04/03 00:45:59;;;;;;;1.80;1.80;;;;;;;1.26;54.99;99769.92;104178;1276;95647;-78
2022/04/03 00:48:27;;;;;;;1.80;1.80;;;;;;;1.18;54.94;99773.92;104054;1276;137902;-74
2022/04/03 00:50:55;;;;;;;1.90;1.90;;;;;;;1.12;55.21;99778.48;104243;1276;98202;-75
2022/04/03 00:53:23;;;;;;;1.90;1.90;;;;;;;1.05;55.43;99774.45;104207;1276;108287;-75
2022/04/03 00:55:51;;;;;;;1.70;1.70;;;;;;;1.04;55.15;99775.13;104131;1276;138524;-76
2022/04/03 00:58:19;;;;;;;1.70;1.70;;;;;;;1.07;55.39;99775.48;104233;1276;95532;-76
2022/04/03 01:00:48;;;;;;;1.70;1.70;;;;;;;1.08;55.27;99776.89;104209;1276;137848;-75
2022/04/03 01:03:16;;;;;;;1.70;1.70;;;;;;;1.09;55.21;99778.63;104256;1276;98780;-76
2022/04/03 01:05:44;;;;;;;1.80;1.80;;;;;;;1.03;55.34;99780.38;104217;1276;108398;-77
2022/04/03 01:08:12;;;;;;;2.20;2.10;;;;;;;1.04;55.33;99780.73;104147;1276;138343;-77
2022/04/03 01:10:41;;;;;;;1.80;1.80;;;;;;;1.00;54.93;99780.90;104184;1276;95261;-76
2022/04/03 01:13:10;;;;;;;1.90;1.90;;;;;;;0.94;55.02;99775.63;104062;1279;138103;-76
2022/04/03 01:15:38;;;;;;;1.90;1.90;;;;;;;0.90;55.26;99778.07;104156;1276;97259;-77
2022/04/03 01:18:07;;;;;;;1.90;1.90;;;;;;;0.92;55.52;99777.20;104128;1276;138128;-76
2022/04/03 01:20:35;;;;;;;1.60;1.60;;;;;;;0.92;55.62;99775.44;104118;1277;95791;-76
2022/04/03 01:23:03;;;;;;;1.70;1.70;;;;;;;0.93;55.22;99775.98;104203;1276;95479;-76
2022/04/03 01:25:31;;;;;;;1.80;1.80;;;;;;;0.90;55.66;99775.29;104099;1276;137627;-76
2022/04/03 01:27:59;;;;;;;1.90;1.90;;;;;;;0.92;55.68;99774.23;103884;1276;419159;-74
2022/04/03 01:30:27;;;;;;;1.80;1.80;;;;;;;0.88;55.47;99774.56;104062;1276;138075;-75
2022/04/03 01:32:55;;;;;;;1.90;1.90;;;;;;;0.87;55.25;99778.74;104253;1276;95851;-76
2022/04/03 01:35:23;;;;;;;1.70;1.70;;;;;;;0.88;55.21;99780.52;104195;1276;95160;-76
2022/04/03 01:37:51;;;;;;;1.70;1.70;;;;;;;0.87;54.99;99780.34;104101;1276;138346;-76
2022/04/03 01:40:19;;;;;;;1.70;1.70;;;;;;;0.89;55.27;99782.42;104163;1276;97444;-77
2022/04/03 01:42:47;;;;;;;1.70;1.70;;;;;;;0.89;55.03;99782.77;104089;1276;137776;-77
2022/04/03 01:45:15;;;;;;;1.70;1.70;;;;;;;0.84;55.06;99788.36;104252;1276;95769;-77
2022/04/03 01:47:43;;;;;;;1.70;1.70;;;;;;;0.85;55.28;99789.77;104272;1277;95140;-77
2022/04/03 01:50:11;;;;;;;1.70;1.70;;;;;;;0.81;55.35;99790.62;104150;1276;137444;-76
2022/04/03 01:52:39;;;;;;;1.90;1.90;;;;;;;0.77;55.48;99792.88;104257;1276;96750;-76
2022/04/03 01:55:08;;;;;;;2.10;2.00;;;;;;;0.77;55.05;99792.19;104143;1276;138279;-77
2022/04/03 01:57:37;;;;;;;1.80;1.80;;;;;;;0.78;55.12;99794.09;104257;1276;95250;-76
2022/04/03 02:00:07;;;;;;;1.90;1.90;;;;;;;0.83;55.03;99800.24;104054;1277;137650;-76
2022/04/03 02:02:36;;;;;;;1.90;1.90;;;;;;;0.77;55.14;99810.89;104200;1276;109662;-77
2022/04/03 02:05:05;;;;;;;1.90;1.90;;;;;;;0.76;55.19;99810.69;104378;1276;98356;-76
2022/04/03 02:07:33;;;;;;;1.90;1.90;;;;;;;0.76;55.14;99810.69;104091;1276;138646;-76
2022/04/03 02:10:04;;;;;;;1.80;1.80;;;;;;;0.71;55.14;99812.61;104149;1279;95803;-77
2022/04/03 02:12:31;;;;;;;1.90;1.90;;;;;;;0.62;55.10;99812.73;104010;1277;137707;-77
2022/04/03 02:14:59;;;;;;;2.00;2.00;;;;;;;0.56;55.04;99816.20;104203;1276;109421;-75
2022/04/03 02:17:27;;;;;;;1.80;1.80;;;;;;;0.53;55.34;99818.81;104183;1276;97231;-76
2022/04/03 02:19:55;;;;;;;1.70;1.70;;;;;;;0.58;55.12;99819.87;104078;1277;137795;-76
2022/04/03 02:22:23;;;;;;;1.80;1.80;;;;;;;0.58;54.73;99820.58;104252;1276;96105;-76
2022/04/03 02:24:51;;;;;;;2.00;2.00;;;;;;;0.49;54.90;99823.34;104095;1276;137525;-78
2022/04/03 02:27:19;;;;;;;2.20;2.10;;;;;;;0.49;54.70;99824.20;104191;1277;108345;-77
2022/04/03 02:29:47;;;;;;;1.90;1.90;;;;;;;0.45;54.92;99823.65;104194;1276;98385;-74
2022/04/03 02:32:16;;;;;;;2.10;2.00;;;;;;;0.38;55.02;99816.46;104059;1276;137465;-76
2022/04/03 02:34:44;;;;;;;2.10;2.00;;;;;;;0.35;55.37;99821.68;104152;1276;95752;-75
2022/04/03 02:37:14;;;;;;;1.90;1.90;;;;;;;0.33;55.06;99824.63;104057;1276;138191;-75
2022/04/03 02:39:44;;;;;;;2.00;2.00;;;;;;;0.31;55.29;99827.05;104186;1276;108751;-75
2022/04/03 02:42:12;;;;;;;2.00;2.00;;;;;;;0.37;54.88;99830.60;103970;1276;138382;-75
2022/04/03 02:44:40;;;;;;;1.80;1.80;;;;;;;0.39;54.58;99830.94;104177;1276;105445;-74
2022/04/03 02:47:08;;;;;;;1.90;1.90;;;;;;;0.30;54.43;99835.80;104180;1276;95205;-73
2022/04/03 02:49:36;;;;;;;1.90;1.90;;;;;;;0.24;54.56;99835.58;104116;1276;137606;-76
2022/04/03 02:52:04;;;;;;;2.00;2.00;;;;;;;0.19;54.80;99833.80;104264;1276;108734;-74
2022/04/03 02:54:33;;;;;;;2.10;2.10;;;;;;;0.13;54.65;99834.29;104104;1276;138445;-75
2022/04/03 02:57:01;;;;;;;2.00;2.00;;;;;;;0.05;54.51;99834.05;104206;1276;107823;-76
2022/04/03 02:59:29;;;;;;;2.30;2.20;;;;;;;-0.04;54.83;99833.81;104195;1276;95623;-75
2022/04/03 03:01:57;;;;;;;2.20;2.10;;;;;;;-0.03;54.75;99832.60;104177;1276;138282;-75
2022/04/03 03:04:25;;;;;;;2.20;2.10;;;;;;;-0.02;54.81;99830.68;104304;1276;108770;-76
2022/04/03 03:06:54;;;;;;;2.20;2.10;;;;;;;-0.03;54.77;99832.26;104353;1274;138667;-75
2022/04/03 03:09:23;;;;;;;2.00;2.00;;;;;;;0.02;54.65;99833.86;104076;1279;107722;-76
2022/04/03 03:11:51;;;;;;;2.10;2.10;;;;;;;0.05;54.28;99839.29;104269;1276;95243;-77
2022/04/03 03:14:19;;;;;;;2.10;2.00;;;;;;;-0.01;54.40;99841.69;104097;1276;138140;-75
2022/04/03 03:16:48;;;;;;;2.40;2.30;;;;;;;-0.03;54.72;99841.86;104239;1276;108667;-76
2022/04/03 03:19:17;;;;;;;2.10;2.00;;;;;;;-0.01;54.60;99845.70;104444;1276;138123;-76
2022/04/03 03:21:45;;;;;;;2.20;2.10;;;;;;;-0.03;54.15;99846.21;104204;1276;105938;-76
2022/04/03 03:24:13;;;;;;;2.20;2.10;;;;;;;-0.10;54.63;99842.50;103997;1276;138255;-75
2022/04/03 03:26:41;;;;;;;2.30;2.20;;;;;;;-0.09;54.29;99842.67;104154;1277;95636;-75
2022/04/03 03:29:11;;;;;;;2.30;2.20;;;;;;;-0.17;54.49;99842.09;104192;1276;109724;-74
2022/04/03 03:31:39;;;;;;;2.30;2.20;;;;;;;-0.20;54.57;99841.55;104036;1276;138442;-75
2022/04/03 03:34:08;;;;;;;2.00;2.00;;;;;;;-0.20;54.38;99844.16;104144;1276;107760;-75
2022/04/03 03:36:36;;;;;;;2.10;2.00;;;;;;;-0.19;54.45;99844.69;104102;1276;138473;-76
2022/04/03 03:39:04;;;;;;;2.20;2.10;;;;;;;-0.18;54.26;99851.31;104160;1276;95335;-76
2022/04/03 03:41:32;;;;;;;2.30;2.20;;;;;;;-0.26;54.11;99853.52;104142;1279;107928;-75
2022/04/03 03:44:06;;;;;;;2.30;2.20;;;;;;;-0.26;54.05;99854.39;104094;1276;137956;-79
2022/04/03 03:46:34;;;;;;;2.30;2.20;;;;;;;-0.23;54.31;99861.39;104147;1276;107797;-76
2022/04/03 03:49:03;;;;;;;2.30;2.20;;;;;;;-0.28;54.22;99860.66;104091;1276;138723;-77
2022/04/03 03:51:31;;;;;;;2.30;2.20;;;;;;;-0.31;54.44;99862.55;104184;1276;95308;-77
2022/04/03 03:54:01;;;;;;;2.60;2.50;;;;;;;-0.39;54.71;99864.92;104111;1276;138077;-77
2022/04/03 03:56:29;;;;;;;2.20;2.10;;;;;;;-0.37;54.89;99873.83;104163;1276;98082;-76
2022/04/03 03:58:58;;;;;;;2.20;2.10;;;;;;;-0.30;54.71;99868.31;104224;1276;107650;-75
2022/04/03 04:01:26;;;;;;;2.20;2.10;;;;;;;-0.28;54.39;99873.23;104137;1276;138098;-76
2022/04/03 04:03:54;;;;;;;2.30;2.20;;;;;;;-0.20;54.61;99872.93;104216;1277;95179;-75
2022/04/03 04:06:22;;;;;;;2.20;2.10;;;;;;;-0.14;54.11;99880.15;104137;1276;138564;-75
2022/04/03 04:08:50;;;;;;;2.20;2.10;;;;;;;-0.20;54.33;99878.70;104180;1279;98301;-76
2022/04/03 04:11:18;;;;;;;2.50;2.40;;;;;;;-0.21;54.19;99880.95;104083;1276;108097;-76
2022/04/03 04:13:47;;;;;;;2.30;2.20;;;;;;;-0.26;54.01;99880.92;104074;1276;138174;-75
2022/04/03 04:16:15;;;;;;;2.20;2.10;;;;;;;-0.41;54.37;99886.52;104123;1276;97062;-74
2022/04/03 04:18:43;;;;;;;2.20;2.10;;;;;;;-0.41;54.60;99888.09;104046;1276;137881;-77
2022/04/03 04:21:12;;;;;;;2.50;2.40;;;;;;;-0.40;54.34;99890.89;104164;1277;98349;-74
2022/04/03 04:23:40;;;;;;;2.50;2.40;;;;;;;-0.47;54.28;99896.40;104139;1277;107809;-76
2022/04/03 04:26:08;;;;;;;2.60;2.50;;;;;;;-0.51;54.44;99897.59;104119;1276;138294;-76
2022/04/03 04:28:36;;;;;;;2.50;2.40;;;;;;;-0.49;54.60;99899.70;104258;1276;95385;-74
2022/04/03 04:31:04;;;;;;;2.40;2.30;;;;;;;-0.45;54.48;99900.09;104137;1276;138386;-76
2022/04/03 04:33:32;;;;;;;2.30;2.20;;;;;;;-0.40;54.34;99904.66;104125;1279;98326;-76
2022/04/03 04:36:00;;;;;;;2.20;2.10;;;;;;;-0.40;54.07;99903.27;103978;1276;138091;-76
2022/04/03 04:38:28;;;;;;;2.10;2.00;;;;;;;-0.37;53.93;99907.49;104220;1276;95255;-76
2022/04/03 04:40:58;;;;;;;2.10;2.00;;;;;;;-0.40;54.09;99910.08;104174;1276;95212;-75
2022/04/03 04:43:26;;;;;;;2.40;2.30;;;;;;;-0.43;54.45;99912.48;104111;1276;138427;-76
2022/04/03 04:45:54;;;;;;;2.30;2.20;;;;;;;-0.37;54.02;99911.51;104221;1276;99260;-77
2022/04/03 04:48:22;;;;;;;2.50;2.40;;;;;;;-0.37;54.05;99913.95;104156;1276;138484;-74
2022/04/03 04:50:50;;;;;;;2.30;2.20;;;;;;;-0.38;53.93;99917.77;104182;1277;96108;-76
2022/04/03 04:53:22;;;;;;;2.20;2.10;;;;;;;-0.44;54.13;99918.75;104242;1276;95732;-74
2022/04/03 04:55:50;;;;;;;2.30;2.20;;;;;;;-0.46;53.84;99922.05;104058;1276;138366;-75
2022/04/03 04:58:18;;;;;;;2.30;2.20;;;;;;;-0.48;53.77;99927.95;104186;1276;98465;-75
2022/04/03 05:00:47;;;;;;;2.30;2.20;;;;;;;-0.50;53.62;99930.91;104036;1276;139046;-76
2022/04/03 05:03:15;;;;;;;2.30;2.20;;;;;;;-0.50;53.93;99938.21;104142;1276;95688;-75
2022/04/03 05:05:43;;;;;;;2.60;2.50;;;;;;;-0.49;53.76;99939.28;104125;1276;95330;-74
2022/04/03 05:08:14;;;;;;;2.30;2.20;;;;;;;-0.51;53.61;99942.73;104112;1276;138153;-77
2022/04/03 05:10:43;;;;;;;2.40;2.30;;;;;;;-0.44;53.73;99948.92;104195;1276;98327;-75
2022/04/03 05:13:11;;;;;;;2.30;2.20;;;;;;;-0.44;53.33;99947.17;104175;1276;138475;-76
2022/04/03 05:15:39;;;;;;;2.30;2.20;;;;;;;-0.46;53.45;99953.96;104238;1276;95612;-74
2022/04/03 05:18:07;;;;;;;2.20;2.10;;;;;;;-0.41;53.55;99957.51;104084;1276;138032;-76
2022/04/03 05:20:35;;;;;;;2.20;2.10;;;;;;;-0.34;53.41;99956.02;104160;1277;108349;-74
2022/04/03 05:23:03;;;;;;;2.40;2.30;;;;;;;-0.26;53.28;99959.07;104290;1276;98826;-74
2022/04/03 05:25:31;;;;;;;2.20;2.10;;;;;;;-0.23;53.11;99964.16;104164;1276;137963;-74
2022/04/03 05:28:00;;;;;;;2.20;2.10;;;;;;;-0.22;52.85;99966.77;104216;1276;95311;-76
2022/04/03 05:30:28;;;;;;;2.20;2.10;;;;;;;-0.25;52.39;99966.92;104098;1277;138627;-77
2022/04/03 05:32:56;;;;;;;2.20;2.10;;;;;;;-0.27;52.72;99972.66;104196;1276;108880;-76
2022/04/03 05:35:24;;;;;;;2.20;2.10;;;;;;;-0.22;52.87;99976.72;104160;1275;97807;-77
2022/04/03 05:37:52;;;;;;;2.20;2.10;;;;;;;-0.14;52.34;99976.10;104108;1276;138341;-75
2022/04/03 05:40:20;;;;;;;2.20;2.10;;;;;;;-0.09;52.30;99978.27;104183;1276;95195;-75
2022/04/03 05:42:48;;;;;;;2.30;2.20;;;;;;;-0.04;52.14;99982.14;104120;1276;137937;-77
2022/04/03 05:45:17;;;;;;;2.40;2.30;;;;;;;-0.01;52.36;99983.40;104146;1277;108693;-76
2022/04/03 05:47:45;;;;;;;2.10;2.00;;;;;;;0.01;52.17;99988.48;104262;1276;98874;-74
2022/04/03 05:50:17;;;;;;;2.00;2.00;;;;;;;0.02;51.74;99986.92;104092;1276;137713;-76
2022/04/03 05:52:50;;;;;;;1.90;1.90;;;;;;;0.05;51.76;99987.80;104158;1277;95238;-74
2022/04/03 05:55:21;;;;;;;2.20;2.10;;;;;;;0.03;51.36;99991.45;104123;1276;137982;-77
2022/04/03 05:57:51;;;;;;;1.90;1.90;;;;;;;-0.02;51.02;99992.28;104267;1279;109653;-76
2022/04/03 06:00:22;;;;;;;2.20;2.10;;;;;;;0.04;51.42;99995.33;104086;1279;138228;-77
2022/04/03 06:03:00;;;;;;;2.00;2.00;;;;;;;0.13;50.86;100001.86;104369;1279;107082;-77
2022/04/03 06:05:35;;;;;;;1.90;1.90;;;;;;;0.21;51.11;100005.95;104169;1279;95696;-76
2022/04/03 06:08:03;;;;;;;2.20;2.10;;;;;;;0.33;50.78;100002.73;104108;1276;137897;-76
2022/04/03 06:10:34;;;;;;;1.80;1.80;;;;;;;0.46;50.02;100007.58;104190;1278;108757;-77
2022/04/03 06:13:08;;;;;;;1.80;1.80;;;;;;;0.56;50.27;100007.46;103931;1279;138484;-74
2022/04/03 06:15:38;;;;;;;1.80;1.80;;;;;;;0.66;49.95;100008.25;104128;1277;107766;-74
2022/04/03 06:18:08;;;;;;;1.90;1.90;;;;;;;0.63;49.98;100011.55;104063;1277;138430;-76
2022/04/03 06:20:36;;;;;;;1.90;1.90;;;;;;;0.68;50.06;100012.81;104215;1276;95267;-78
2022/04/03 06:23:16;;;;;;;1.80;1.80;;;;;;;0.75;49.44;100012.70;104131;1280;108714;-76
2022/04/03 06:25:46;;;;;;;1.90;1.90;;;;;;;0.77;49.27;100013.05;104085;1277;138824;-76
2022/04/03 06:28:14;;;;;;;2.20;2.10;;;;;;;0.75;49.57;100014.79;104139;1279;107763;-76
2022/04/03 06:30:43;;;;;;;1.80;1.80;;;;;;;0.77;49.61;100018.65;104132;1276;139041;-75
2022/04/03 06:33:11;;;;;;;1.90;1.90;;;;;;;0.78;49.11;100016.91;104116;1277;95692;-76
2022/04/03 06:35:40;;;;;;;1.80;1.80;;;;;;;0.72;49.07;100023.31;104111;1278;108732;-74
2022/04/03 06:38:12;;;;;;;2.00;2.00;;;;;;;0.71;49.38;100025.59;104078;1277;137975;-78
2022/04/03 06:40:47;;;;;;;1.80;1.80;;;;;;;0.77;49.04;100025.11;104310;1276;107808;-77
2022/04/03 06:43:18;;;;;;;1.70;1.70;;;;;;;0.83;49.45;100021.83;104105;1279;138783;-77
2022/04/03 06:45:50;;;;;;;2.20;2.10;;;;;;;0.93;48.91;100026.09;104117;1278;95980;-76
2022/04/03 06:48:19;;;;;;;1.80;1.80;;;;;;;0.96;49.22;100030.82;104048;1276;138081;-76
2022/04/03 06:50:48;;;;;;;1.70;1.70;;;;;;;0.99;48.77;100031.39;104205;1277;98338;-77
2022/04/03 06:53:16;;;;;;;1.80;1.80;;;;;;;1.00;48.99;100032.44;104095;1279;107794;-76
2022/04/03 06:55:44;;;;;;;1.70;1.70;;;;;;;1.04;48.57;100031.95;104090;1276;140840;-77
2022/04/03 06:58:12;;;;;;;1.70;1.70;;;;;;;1.03;48.54;100035.42;104182;1279;97509;-76
2022/04/03 07:00:40;;;;;;;1.80;1.80;;;;;;;1.08;48.45;100038.09;104110;1276;138459;-76
2022/04/03 07:03:08;;;;;;;1.70;1.70;;;;;;;1.19;48.97;100040.44;104204;1276;98454;-75
2022/04/03 07:05:36;;;;;;;1.60;1.60;;;;;;;1.29;48.80;100042.77;104190;1277;107772;-75
2022/04/03 07:08:04;;;;;;;1.70;1.70;;;;;;;1.37;48.76;100045.42;104090;1278;138025;-76
2022/04/03 07:10:33;;;;;;;1.80;1.80;;;;;;;1.48;48.36;100047.58;104192;1278;95215;-76
2022/04/03 07:13:02;;;;;;;1.70;1.70;;;;;;;1.53;48.08;100046.55;104265;1277;137801;-77
2022/04/03 07:15:30;;;;;;;1.70;1.70;;;;;;;1.54;47.67;100047.77;104263;1277;96488;-79
2022/04/03 07:17:58;;;;;;;1.70;1.70;;;;;;;1.55;47.71;100051.46;104208;1277;106461;-77
2022/04/03 07:20:27;;;;;;;2.20;2.10;;;;;;;1.64;47.55;100052.20;104132;1276;138653;-77
2022/04/03 07:22:55;;;;;;;1.60;1.60;;;;;;;1.76;47.84;100049.63;104220;1276;95158;-76
2022/04/03 07:25:23;;;;;;;1.70;1.70;;;;;;;1.86;47.51;100052.11;104103;1278;138006;-77
2022/04/03 07:27:51;;;;;;;1.70;1.70;;;;;;;1.87;46.63;100054.22;104220;1277;100576;-76
2022/04/03 07:30:19;;;;;;;1.60;1.60;;;;;;;1.88;47.09;100054.39;104094;1276;138197;-76
2022/04/03 07:32:47;;;;;;;1.50;1.50;;;;;;;1.96;47.24;100058.63;104171;1277;96259;-75
2022/04/03 07:35:15;;;;;;;1.50;1.50;;;;;;;2.08;46.94;100063.22;104259;1276;95531;-76
2022/04/03 07:37:43;;;;;;;1.60;1.60;;;;;;;2.20;46.97;100056.05;104108;1278;137834;-76
2022/04/03 07:40:12;;;;;;;1.50;1.50;;;;;;;2.34;46.73;100052.92;104280;1276;98334;-77
2022/04/03 07:42:40;;;;;;;1.60;1.60;;;;;;;2.33;45.95;100054.16;104156;1277;137937;-78
2022/04/03 07:45:11;;;;;;;1.50;1.50;;;;;;;2.37;45.67;100056.64;104086;1278;95880;-76
2022/04/03 07:47:48;;;;;;;1.50;1.50;;;;;;;2.42;45.84;100059.95;104125;1279;95830;-76
2022/04/03 07:50:20;;;;;;;1.50;1.50;;;;;;;2.48;45.52;100058.92;104048;1276;137949;-76
2022/04/03 07:52:49;;;;;;;1.40;1.40;;;;;;;2.52;45.36;100061.20;104174;1277;98869;-76
2022/04/03 07:55:17;;;;;;;1.40;1.40;;;;;;;2.63;45.20;100065.41;104087;1277;137930;-79
2022/04/03 07:57:45;;;;;;;1.60;1.60;;;;;;;2.78;45.91;100065.41;104540;1276;97000;-76
2022/04/03 08:00:14;;;;;;;1.50;1.50;;;;;;;2.98;45.84;100068.21;104236;1276;137879;-77
2022/04/03 08:02:42;;;;;;;1.40;1.40;;;;;;;3.18;44.85;100067.85;104195;1278;108478;-77
2022/04/03 08:05:10;;;;;;;1.60;1.60;;;;;;;3.36;44.59;100071.85;104249;1277;98347;-77
2022/04/03 08:07:44;;;;;;;1.30;1.30;;;;;;;3.49;44.40;100071.10;104041;1276;137931;-77
2022/04/03 08:10:18;;;;;;;1.30;1.30;;;;;;;3.63;43.75;100074.05;104219;1277;95767;-77
2022/04/03 08:12:47;;;;;;;1.30;1.30;;;;;;;3.71;42.75;100070.88;104071;1278;138012;-77
2022/04/03 08:15:18;;;;;;;1.20;1.20;;;;;;;3.85;42.19;100072.39;104318;1276;109101;-80
2022/04/03 08:17:45;;;;;;;1.20;1.20;;;;;;;3.95;42.28;100073.59;104272;1277;99852;-77
2022/04/03 08:20:16;;;;;;;1.20;1.20;;;;;;;4.03;41.90;100076.17;104159;1276;137845;-79
2022/04/03 08:22:46;;;;;;;1.20;1.20;;;;;;;4.11;41.24;100076.30;104167;1277;97200;-77
2022/04/03 08:25:16;;;;;;;1.10;1.10;;;;;;;4.16;41.39;100077.70;104098;1277;137986;-77
2022/04/03 08:27:46;;;;;;;1.30;1.30;;;;;;;4.24;40.68;100078.00;104275;1275;108765;-79
2022/04/03 08:30:21;;;;;;;1.10;1.10;;;;;;;4.42;41.11;100077.55;104223;1277;138742;-78
2022/04/03 08:32:49;;;;;;;1.10;1.10;;;;;;;4.47;40.04;100076.98;104211;1277;107522;-77
2022/04/03 08:35:19;;;;;;;1.10;1.10;;;;;;;4.58;40.15;100076.56;104227;1276;95647;-76
2022/04/03 08:37:50;;;;;;;1.10;1.10;;;;;;;4.76;40.39;100077.83;104173;1277;138027;-77
2022/04/03 08:40:22;;;;;;;1.00;1.00;;;;;;;5.01;40.08;100078.88;104272;1276;108803;-76
2022/04/03 08:42:52;;;;;;;1.10;1.10;;;;;;;5.14;39.53;100083.85;104224;1277;138078;-77
2022/04/03 08:45:22;;;;;;;1.30;1.30;;;;;;;5.26;39.23;100081.64;104273;1278;108330;-77
2022/04/03 08:48:04;;;;;;;1.00;1.00;;;;;;;5.43;38.92;100089.21;104356;1275;95214;-76
2022/04/03 08:50:37;;;;;;;1.00;1.00;;;;;;;5.58;38.77;100089.75;104193;1277;137678;-78
2022/04/03 08:53:08;;;;;;;1.00;1.00;;;;;;;5.71;38.00;100091.19;104253;1278;108808;-77
2022/04/03 08:55:38;;;;;;;1.00;1.00;;;;;;;5.65;36.94;100091.25;104123;1276;138123;-75
2022/04/03 08:58:08;;;;;;;0.90;0.90;;;;;;;5.76;37.48;100090.95;104312;1277;107837;-76
2022/04/03 09:00:36;;;;;;;1.00;1.00;;;;;;;5.96;37.12;100084.40;104175;1277;138712;-76
2022/04/03 09:03:07;;;;;;;0.90;0.90;;;;;;;6.14;37.34;100086.81;104502;1277;95142;-76
2022/04/03 09:05:37;;;;;;;0.90;0.90;;;;;;;6.37;36.80;100080.34;104321;1277;108659;-75
2022/04/03 09:08:06;;;;;;;0.90;0.90;;;;;;;6.57;35.94;100081.28;104359;1277;139864;-76
2022/04/03 09:10:34;;;;;;;0.90;0.90;;;;;;;6.97;35.45;100078.36;104320;1277;108497;-76
2022/04/03 09:13:03;;;;;;;0.80;0.80;;;;;;;7.79;34.97;100077.39;104252;1277;137965;-75
2022/04/03 09:15:31;;;;;;;1.00;1.00;;;;;;;8.46;33.09;100073.52;104458;1275;95228;-74
2022/04/03 09:18:01;;;;;;;0.90;0.90;;;;;;;9.71;32.00;100074.05;104421;1275;107102;-77
2022/04/03 09:20:32;;;;;;;0.70;0.70;;;;;;;11.80;28.97;100071.10;104421;1278;137552;-77
2022/04/03 09:23:06;;;;;;;0.60;0.60;;;;;;;13.69;26.85;100066.71;104512;1277;109092;-77
2022/04/03 09:25:40;;;;;;;1.20;1.20;;;;;;;15.71;25.04;100059.83;104025;1277;138235;-78
2022/04/03 09:28:13;;;;;;;0.40;0.30;;;;;;;17.35;22.86;100063.09;104398;1277;96319;-76
2022/04/03 09:30:45;;;;;;;0.40;0.30;;;;;;;18.48;21.58;100064.95;104206;1276;138730;-77
2022/04/03 09:33:20;;;;;;;0.40;0.20;;;;;;;19.84;21.62;100059.77;104195;1278;98349;-77
2022/04/03 09:35:57;;;;;;;0.40;0.20;;;;;;;21.29;19.82;100065.64;104197;1277;108951;-76
2022/04/03 09:38:29;;;;;;;0.40;0.20;;;;;;;21.77;18.78;100071.38;105145;1277;138166;-77
2022/04/03 09:40:58;;;;;;;0.40;0.20;;;;;;;21.93;17.80;100072.73;104351;1277;95293;-77
2022/04/03 09:43:40;;;;;;;0.40;0.10;;;;;;;22.94;16.98;100066.36;104298;1277;139533;-76
2022/04/03 09:46:13;;;;;;;0.40;0.20;;;;;;;23.72;15.94;100068.43;104455;1277;98342;-78
2022/04/03 09:48:44;;;;;;;0.40;0.00;;;;;;;24.03;15.11;100070.13;104167;1278;138844;-79
2022/04/03 09:51:22;;;;;;;0.40;0.00;;;;;;;22.57;16.64;100078.73;104390;1278;96467;-78
2022/04/03 09:53:58;;;;;;;0.40;0.00;;;;;;;20.61;17.95;100085.88;104308;1278;95961;-78
2022/04/03 09:56:34;;;;;;;0.40;0.10;;;;;;;19.13;18.07;100085.36;104207;1277;138133;-78
2022/04/03 09:59:06;;;;;;;0.40;0.10;;;;;;;20.02;18.37;100081.78;104329;1278;98422;-77
2022/04/03 10:01:39;;;;;;;0.40;0.10;;;;;;;21.51;17.35;100081.45;104252;1277;138133;-78
2022/04/03 10:04:09;;;;;;;0.40;0.10;;;;;;;22.21;16.75;100085.98;104234;1278;95836;-77
2022/04/03 10:06:38;;;;;;;0.40;0.10;;;;;;;20.67;17.21;100084.34;104276;1278;138286;-75
2022/04/03 10:09:11;;;;;;;0.40;0.10;;;;;;;18.96;17.92;100092.18;104333;1277;108631;-78
2022/04/03 10:11:40;;;;;;;0.40;0.10;;;;;;;17.73;19.35;100098.01;104321;1278;98422;-77
2022/04/03 10:14:10;;;;;;;0.40;0.20;;;;;;;17.02;19.85;100097.67;104284;1278;138662;-78
2022/04/03 10:16:38;;;;;;;0.40;0.20;;;;;;;18.59;18.67;100093.34;104750;1276;95317;-78
2022/04/03 10:19:06;;;;;;;0.40;0.20;;;;;;;19.85;17.97;100088.14;104203;1277;138061;-77
2022/04/03 10:21:38;;;;;;;0.40;0.10;;;;;;;21.49;16.87;100087.11;104387;1277;108052;-78
2022/04/03 10:24:16;;;;;;;0.40;0.10;;;;;;;21.85;15.33;100080.84;104473;1276;98837;-77
2022/04/03 10:27:07;;;;;;;0.40;0.10;;;;;;;19.26;17.33;100088.77;104706;1277;138073;-78
2022/04/03 10:29:41;;;;;;;0.40;0.10;;;;;;;17.85;18.29;100094.34;104432;1277;95427;-79
2022/04/03 10:32:09;;;;;;;0.40;0.10;;;;;;;18.42;18.00;100090.30;104250;1277;137761;-77
2022/04/03 10:34:46;;;;;;;0.40;0.10;;;;;;;18.44;18.30;100088.74;104432;1278;108521;-77
2022/04/03 10:37:38;;;;;;;0.40;0.20;;;;;;;18.02;18.07;100093.11;104311;1278;138903;-77
2022/04/03 10:40:18;;;;;;;0.40;0.20;;;;;;;18.38;18.56;100085.13;104265;1278;108794;-76
2022/04/03 10:42:55;;;;;;;0.40;0.10;;;;;;;19.77;17.61;100078.18;104259;1277;140005;-76
2022/04/03 10:45:50;;;;;;;0.40;0.10;;;;;;;18.85;17.71;100078.90;104290;1277;95904;-76
2022/04/03 10:48:26;;;;;;;0.40;0.10;;;;;;;18.55;17.64;100082.47;104476;1277;108383;-76
2022/04/03 10:51:12;;;;;;;0.40;0.10;;;;;;;18.30;17.66;100085.13;104385;1277;138507;-77
2022/04/03 10:53:42;;;;;;;0.40;0.10;;;;;;;18.42;17.06;100084.31;104251;1276;107596;-74
2022/04/03 10:56:21;;;;;;;0.40;0.10;;;;;;;16.76;18.31;100082.98;104274;1278;138676;-77
2022/04/03 10:58:54;;;;;;;0.40;0.10;;;;;;;15.44;19.70;100087.92;104277;1277;95381;-77
2022/04/03 11:01:28;;;;;;;0.40;0.10;;;;;;;14.52;20.70;100088.70;104137;1277;138562;-77
2022/04/03 11:04:13;;;;;;;0.40;0.20;;;;;;;13.76;21.47;100089.30;104335;1277;98385;-78
2022/04/03 11:06:45;;;;;;;0.40;0.20;;;;;;;12.93;22.37;100083.70;104225;1277;138750;-77
2022/04/03 11:09:15;;;;;;;0.40;0.30;;;;;;;12.35;22.81;100088.34;104456;1277;96115;-77
2022/04/03 11:11:52;;;;;;;0.40;0.30;;;;;;;11.74;23.60;100090.55;104554;1278;97071;-76
2022/04/03 11:14:51;;;;;;;0.40;0.30;;;;;;;11.22;23.73;100095.05;104431;1277;138405;-77
2022/04/03 11:17:45;;;;;;;0.40;0.30;;;;;;;10.68;24.94;100097.85;104435;1277;98335;-78
2022/04/03 11:20:36;;;;;;;0.40;0.40;;;;;;;10.41;25.06;100089.62;104554;1276;138446;-77
2022/04/03 11:23:05;;;;;;;0.50;0.40;;;;;;;10.09;26.49;100089.87;104349;1278;95347;-78
2022/04/03 11:25:33;;;;;;;0.50;0.40;;;;;;;9.81;26.99;100096.51;104492;1277;138167;-79
2022/04/03 11:28:02;;;;;;;0.50;0.40;;;;;;;9.55;26.59;100094.36;104493;1277;108689;-79
2022/04/03 11:30:32;;;;;;;0.50;0.50;;;;;;;9.26;26.84;100094.60;105012;1276;98284;-80
2022/04/03 11:33:03;;;;;;;0.50;0.50;;;;;;;8.98;27.75;100093.19;105195;1277;137047;-77
2022/04/03 11:35:40;;;;;;;0.60;0.60;;;;;;;8.69;27.51;100093.00;105007;1276;96429;-78